SYRK1: Arkansas R at Syracuse, KS

                                SHEF ID:       SYRK1     ARKANSAS R AT SYRACUSE, KS
STATION TYPE:
Regulating: Stage = 10.00, Flow = 2000

PRECIP STAGE RIV-FLOW BAT-LOAD
in ft cfs volt
Ccp-Rev Ccp-Rev Ccp-Rev Ccp-Rev
(America/Chicago)
07/20 00:00 0.00 5.68 298 12.65
07/20 01:00 0.00 5.67 296 12.60
07/20 02:00 0.01 5.70 302 12.60
07/20 03:00 0.00 5.67 296 12.60
07/20 04:00 0.00 5.64 291 12.60
07/20 05:00 0.00 5.64 291 12.54
07/20 06:00 0.00 5.65 293 12.54
07/20 07:00 0.00 5.65 293 12.48
07/20 08:00 0.00 5.64 291 12.48
07/20 09:00 0.00 5.64 291 12.54
07/20 10:00 0.00 5.64 291 12.89
07/20 11:00 0.00 5.65 293 13.48
07/20 12:00 0.00 5.66 295 13.48
07/20 13:00 0.00 5.64 291 13.36
07/20 14:00 0.00 5.66 295 13.42
07/20 15:00 0.00 5.68 298 13.36
07/20 16:00 0.00 5.66 295 13.18
07/20 17:00 0.00 5.74 310 13.30
07/20 18:00 0.00 5.76 313 13.24
07/20 19:00 0.00 5.67 296 13.18
07/20 20:00 0.00 5.69 300 12.89
07/20 21:00 0.00 5.69 300 12.77
07/20 22:00 0.00 5.69 300 12.71
07/20 23:00 ---- ---- ---- ----
Data processed at Sun 21Jul2024 04:28 GMT

Parsing this webpage?

Checkout our new Data API! CWMSDataAPI (CDA)

Timeseries IDs (TSIDs)

TSIDs used from left to right in the data table
SYRA.Precip-Inc.Total.1Hour.1Hour.Ccp-Rev
SYRA.Stage.Inst.1Hour.0.Ccp-Rev
SYRA.Flow.Inst.1Hour.0.Ccp-Rev
SYRA.Volt-Battery Load.Inst.1Hour.0.Ccp-Rev

                            

All information presented herein is the property of the government of the United States of America and may be revised or deleted at any time without prior notice. Dissemination of this information without the expressed written consent of the Public Affairs Office, Tulsa District U.S. Army Corps of Engineers is strictly prohibited. These data are gathered electronically and, as presented, have NOT undergone any form of quality control. These data are NOT guaranteed to be valid or correct.